createdAt,value
2018-10-07T00:00:12.397Z,13.80
2018-10-07T00:02:40.965Z,13.80
2018-10-07T00:05:09.443Z,13.80
2018-10-07T00:07:37.942Z,13.80
2018-10-07T00:10:06.595Z,13.80
2018-10-07T00:12:35.086Z,13.70
2018-10-07T00:15:03.590Z,13.70
2018-10-07T00:17:32.099Z,13.70
2018-10-07T00:20:00.898Z,13.70
2018-10-07T00:22:29.373Z,13.70
2018-10-07T00:24:58.196Z,13.70
2018-10-07T00:27:26.711Z,13.70
2018-10-07T00:29:55.189Z,13.70
2018-10-07T00:32:23.690Z,13.70
2018-10-07T00:34:52.195Z,13.70
2018-10-07T00:37:20.669Z,13.70
2018-10-07T00:39:49.145Z,13.60
2018-10-07T00:42:17.654Z,13.70
2018-10-07T00:44:46.140Z,13.70
2018-10-07T00:47:14.702Z,13.70
2018-10-07T00:49:43.214Z,13.70
2018-10-07T00:52:11.720Z,13.70
2018-10-07T00:54:40.252Z,13.60
2018-10-07T00:57:08.719Z,13.60
2018-10-07T00:59:37.190Z,13.60
2018-10-07T01:02:05.723Z,13.60
2018-10-07T01:04:34.208Z,13.60
2018-10-07T01:07:02.725Z,13.60
2018-10-07T01:09:31.216Z,13.60
2018-10-07T01:11:59.734Z,13.60
2018-10-07T01:14:28.500Z,13.60
2018-10-07T01:16:56.979Z,13.60
2018-10-07T01:19:25.771Z,13.60
2018-10-07T01:21:54.239Z,13.60
2018-10-07T01:24:22.746Z,13.60
2018-10-07T01:26:51.334Z,13.60
2018-10-07T01:29:19.816Z,13.50
2018-10-07T01:31:48.311Z,13.50
2018-10-07T01:34:16.814Z,13.50
2018-10-07T01:36:45.295Z,13.50
2018-10-07T01:39:13.794Z,13.60
2018-10-07T01:41:42.652Z,13.60
2018-10-07T01:44:11.133Z,13.50
2018-10-07T01:46:40.272Z,13.60
2018-10-07T01:49:08.776Z,13.60
2018-10-07T01:51:37.606Z,13.60
2018-10-07T01:54:06.103Z,13.60
2018-10-07T01:56:34.613Z,13.50
2018-10-07T01:59:03.081Z,13.50
2018-10-07T02:01:31.565Z,13.50
2018-10-07T02:04:00.046Z,13.40
2018-10-07T02:06:28.599Z,13.40
2018-10-07T02:08:57.060Z,13.40
2018-10-07T02:11:25.639Z,13.40
2018-10-07T02:13:54.118Z,13.40
2018-10-07T02:16:22.670Z,13.30
2018-10-07T02:18:51.136Z,13.30
2018-10-07T02:21:19.600Z,13.30
2018-10-07T02:23:48.071Z,13.30
2018-10-07T02:26:16.560Z,13.20
2018-10-07T02:28:45.075Z,13.20
2018-10-07T02:31:13.585Z,13.20
2018-10-07T02:33:42.106Z,13.20
2018-10-07T02:36:10.559Z,13.10
2018-10-07T02:38:39.054Z,13.10
2018-10-07T02:41:07.546Z,13.10
2018-10-07T02:43:36.386Z,13.10
2018-10-07T02:46:04.884Z,13.10
2018-10-07T02:48:33.375Z,13.10
2018-10-07T02:51:02.158Z,13.10
2018-10-07T02:53:30.723Z,13.10
2018-10-07T02:55:59.339Z,13.10
2018-10-07T02:58:28.277Z,13.10
2018-10-07T03:00:56.871Z,13.10
2018-10-07T03:03:25.393Z,13.10
2018-10-07T03:05:53.973Z,13.10
2018-10-07T03:08:22.443Z,13.10
2018-10-07T03:10:51.004Z,13.10
2018-10-07T03:13:19.503Z,13.00
2018-10-07T03:15:47.964Z,13.00
2018-10-07T03:18:16.462Z,13.00
2018-10-07T03:20:44.922Z,13.00
2018-10-07T03:23:13.505Z,13.00
2018-10-07T03:25:42.062Z,13.00
2018-10-07T03:28:10.585Z,13.00
2018-10-07T03:30:39.043Z,12.90
2018-10-07T03:33:07.515Z,12.90
2018-10-07T03:35:36.023Z,12.90
2018-10-07T03:38:04.806Z,12.90
2018-10-07T03:40:33.499Z,12.80
2018-10-07T03:43:02.048Z,12.80
2018-10-07T03:45:30.530Z,12.80
2018-10-07T03:47:59.026Z,12.70
2018-10-07T03:50:27.486Z,12.70
2018-10-07T03:52:56.002Z,12.60
2018-10-07T03:55:24.493Z,12.60
2018-10-07T03:57:53.006Z,12.50
2018-10-07T04:00:21.503Z,12.50
2018-10-07T04:02:50.018Z,12.50
2018-10-07T04:05:18.563Z,12.50
2018-10-07T04:07:47.098Z,12.50
2018-10-07T04:10:15.559Z,12.50
2018-10-07T04:12:44.055Z,12.40
2018-10-07T04:15:12.524Z,12.40
2018-10-07T04:17:41.015Z,12.40
2018-10-07T04:20:09.521Z,12.30
2018-10-07T04:22:38.011Z,12.20
2018-10-07T04:25:06.708Z,12.10
2018-10-07T04:27:35.199Z,12.10
2018-10-07T04:32:54.971Z,12.10
2018-10-07T04:35:23.521Z,12.00
2018-10-07T04:37:52.067Z,12.00
2018-10-07T04:40:20.587Z,11.90
2018-10-07T04:42:49.088Z,12.00
2018-10-07T04:45:17.631Z,11.90
2018-10-07T04:47:46.223Z,11.90
2018-10-07T04:50:14.740Z,11.90
2018-10-07T04:52:43.260Z,11.90
2018-10-07T04:55:11.771Z,11.90
2018-10-07T04:57:40.288Z,11.90
2018-10-07T05:00:08.867Z,11.90
2018-10-07T05:02:37.400Z,11.90
2018-10-07T05:05:06.112Z,11.80
2018-10-07T05:07:34.747Z,11.80
2018-10-07T05:10:14.672Z,11.80
2018-10-07T05:12:43.344Z,11.80
2018-10-07T05:15:12.032Z,11.70
2018-10-07T05:17:40.650Z,11.70
2018-10-07T05:20:09.207Z,11.70
2018-10-07T05:22:37.834Z,11.60
2018-10-07T05:25:06.612Z,11.70
2018-10-07T05:27:35.141Z,11.70
2018-10-07T05:30:04.206Z,11.60
2018-10-07T05:32:32.860Z,11.60
2018-10-07T05:35:01.340Z,11.60
2018-10-07T05:37:29.835Z,11.60
2018-10-07T05:39:58.373Z,11.60
2018-10-07T05:42:26.937Z,11.60
2018-10-07T05:44:55.474Z,11.60
2018-10-07T05:47:24.013Z,11.60
2018-10-07T05:49:52.533Z,11.70
2018-10-07T05:52:21.256Z,11.70
2018-10-07T05:54:49.823Z,11.70
2018-10-07T05:57:18.442Z,11.70
2018-10-07T05:59:47.019Z,11.80
2018-10-07T06:02:15.770Z,11.70
2018-10-07T06:04:48.445Z,11.80
2018-10-07T06:07:17.056Z,11.80
2018-10-07T06:09:45.617Z,11.90
2018-10-07T06:12:14.236Z,11.90
2018-10-07T06:14:54.182Z,11.90
2018-10-07T06:17:22.661Z,11.90
2018-10-07T06:19:51.243Z,12.00
2018-10-07T06:22:19.938Z,12.00
2018-10-07T06:24:48.460Z,12.00
2018-10-07T06:27:16.995Z,12.00
2018-10-07T06:29:45.559Z,12.10
2018-10-07T06:32:14.106Z,12.10
2018-10-07T06:34:42.639Z,12.10
2018-10-07T06:37:11.304Z,12.10
2018-10-07T06:39:39.859Z,12.10
2018-10-07T06:42:08.639Z,12.20
2018-10-07T06:44:37.215Z,12.20
2018-10-07T06:47:06.029Z,12.20
2018-10-07T06:49:34.541Z,12.20
2018-10-07T06:52:03.136Z,12.30
2018-10-07T06:54:32.045Z,12.40
2018-10-07T06:57:00.639Z,12.50
2018-10-07T06:59:29.243Z,12.50
2018-10-07T07:01:57.775Z,12.70
2018-10-07T07:04:26.325Z,12.70
2018-10-07T07:06:54.820Z,12.80
2018-10-07T07:09:23.365Z,13.00
2018-10-07T07:11:52.142Z,13.10
2018-10-07T07:14:20.673Z,13.20
2018-10-07T07:16:49.464Z,13.30
2018-10-07T07:19:17.960Z,13.40
2018-10-07T07:21:46.467Z,13.50
2018-10-07T07:24:14.991Z,13.60
2018-10-07T07:26:43.520Z,13.60
2018-10-07T07:29:12.052Z,13.80
2018-10-07T07:31:40.545Z,14.00
2018-10-07T07:34:09.098Z,14.10
2018-10-07T07:36:37.603Z,14.20
2018-10-07T07:39:07.252Z,14.40
2018-10-07T07:41:35.749Z,14.60
2018-10-07T07:44:04.279Z,14.70
2018-10-07T07:46:33.266Z,14.80
2018-10-07T07:49:01.810Z,14.90
2018-10-07T07:51:30.356Z,15.10
2018-10-07T07:53:58.855Z,15.20
2018-10-07T07:56:27.387Z,15.30
2018-10-07T07:58:55.924Z,15.40
2018-10-07T08:01:24.767Z,15.50
2018-10-07T08:03:53.285Z,15.50
2018-10-07T08:06:21.837Z,15.50
2018-10-07T08:08:50.435Z,15.60
2018-10-07T08:11:19.063Z,15.70
2018-10-07T08:13:47.593Z,15.70
2018-10-07T08:16:16.154Z,15.70
2018-10-07T08:18:44.670Z,15.80
2018-10-07T08:21:13.196Z,15.80
2018-10-07T08:23:41.741Z,15.90
2018-10-07T08:26:10.232Z,16.00
2018-10-07T08:28:38.799Z,16.10
2018-10-07T08:31:07.377Z,16.10
2018-10-07T08:33:35.915Z,16.30
2018-10-07T08:36:04.432Z,16.40
2018-10-07T08:38:33.049Z,16.60
2018-10-07T08:41:01.592Z,16.70
2018-10-07T08:43:30.156Z,16.70
2018-10-07T08:45:58.670Z,16.70
2018-10-07T08:48:27.226Z,16.80
2018-10-07T08:50:55.772Z,16.70
2018-10-07T08:53:24.327Z,16.70
2018-10-07T08:55:52.811Z,16.60
2018-10-07T08:58:21.338Z,16.50
2018-10-07T09:00:49.856Z,16.50
2018-10-07T09:03:18.499Z,16.40
2018-10-07T09:05:47.032Z,16.40
2018-10-07T09:08:15.568Z,16.40
2018-10-07T09:10:44.088Z,16.40
2018-10-07T09:13:12.652Z,16.30
2018-10-07T09:15:41.173Z,16.20
2018-10-07T09:18:09.727Z,16.20
2018-10-07T09:20:38.403Z,16.20
2018-10-07T09:23:07.426Z,16.20
2018-10-07T09:25:35.922Z,16.20
2018-10-07T09:28:04.556Z,16.30
2018-10-07T09:30:34.218Z,16.30
2018-10-07T09:33:02.761Z,16.20
2018-10-07T09:35:31.291Z,16.20
2018-10-07T09:37:59.812Z,16.20
2018-10-07T09:40:28.342Z,16.20
2018-10-07T09:42:56.924Z,16.20
2018-10-07T09:45:25.489Z,16.10
2018-10-07T09:47:54.165Z,16.10
2018-10-07T09:50:23.154Z,16.00
2018-10-07T09:52:51.916Z,15.90
2018-10-07T09:55:20.465Z,15.90
2018-10-07T09:57:48.998Z,15.90
2018-10-07T10:00:21.764Z,15.80
2018-10-07T10:02:50.303Z,15.70
2018-10-07T10:05:18.869Z,15.70
2018-10-07T10:07:47.401Z,15.60
2018-10-07T10:10:15.988Z,15.60
2018-10-07T10:12:44.493Z,15.50
2018-10-07T10:15:13.125Z,15.50
2018-10-07T10:17:46.354Z,15.60
2018-10-07T10:20:16.327Z,15.60
2018-10-07T10:24:25.781Z,15.60
2018-10-07T10:27:01.756Z,15.60
2018-10-07T10:29:32.260Z,15.60
2018-10-07T10:33:11.404Z,15.70
2018-10-07T10:37:59.486Z,15.50
2018-10-07T10:40:30.728Z,15.50
2018-10-07T10:43:02.936Z,15.40
2018-10-07T10:45:53.575Z,15.40
2018-10-07T10:48:47.677Z,15.40
2018-10-07T10:51:41.321Z,15.30
2018-10-07T10:54:14.049Z,15.30
2018-10-07T10:56:47.056Z,15.20
2018-10-07T10:59:35.515Z,15.20
2018-10-07T11:02:41.399Z,15.10
2018-10-07T11:07:23.092Z,15.00
2018-10-07T11:11:02.953Z,14.90
2018-10-07T11:13:37.268Z,15.00
2018-10-07T11:18:37.496Z,15.00
2018-10-07T11:23:51.548Z,14.90
2018-10-07T11:27:26.020Z,14.90
2018-10-07T11:31:31.316Z,14.80
2018-10-07T11:34:12.069Z,14.70
2018-10-07T11:38:55.302Z,14.60
2018-10-07T11:41:35.965Z,14.50
2018-10-07T11:44:15.144Z,14.40
2018-10-07T11:47:01.086Z,14.40
2018-10-07T11:49:39.405Z,14.40
2018-10-07T11:52:20.154Z,14.50
2018-10-07T11:54:56.741Z,14.50
2018-10-07T11:57:25.542Z,14.50
2018-10-07T11:59:54.119Z,14.40
2018-10-07T12:02:22.674Z,14.40
2018-10-07T12:04:51.567Z,14.50
2018-10-07T12:07:20.158Z,14.40
2018-10-07T12:09:48.648Z,14.40
2018-10-07T12:12:17.430Z,14.40
2018-10-07T12:14:46.552Z,14.30
2018-10-07T12:17:15.223Z,14.30
2018-10-07T12:19:43.751Z,14.20
2018-10-07T12:22:12.251Z,14.20
2018-10-07T12:24:40.769Z,14.20
2018-10-07T12:27:10.364Z,14.20
2018-10-07T12:29:39.145Z,14.30
2018-10-07T12:32:08.529Z,14.40
2018-10-07T12:34:37.059Z,14.50
2018-10-07T12:37:05.586Z,14.50
2018-10-07T12:39:34.420Z,14.60
2018-10-07T12:42:02.991Z,14.50
2018-10-07T12:44:31.520Z,14.50
2018-10-07T12:47:00.099Z,14.50
2018-10-07T12:49:28.589Z,14.60
2018-10-07T12:51:57.130Z,14.60
2018-10-07T12:54:25.698Z,14.50
2018-10-07T12:56:54.174Z,14.50
2018-10-07T12:59:22.836Z,14.40
2018-10-07T13:01:51.357Z,14.40
2018-10-07T13:04:19.908Z,14.30
2018-10-07T13:06:48.429Z,14.20
2018-10-07T13:09:16.933Z,14.10
2018-10-07T13:11:45.467Z,14.10
2018-10-07T13:14:13.975Z,14.00
2018-10-07T13:16:42.504Z,14.00
2018-10-07T13:19:11.025Z,14.00
2018-10-07T13:21:39.558Z,14.00
2018-10-07T13:24:08.103Z,14.00
2018-10-07T13:26:36.645Z,13.90
2018-10-07T13:29:05.621Z,13.70
2018-10-07T13:31:34.139Z,13.70
2018-10-07T13:34:02.686Z,13.60
2018-10-07T13:36:31.189Z,13.50
2018-10-07T13:38:59.711Z,13.50
2018-10-07T13:41:28.224Z,13.50
2018-10-07T13:43:56.736Z,13.50
2018-10-07T13:46:25.272Z,13.50
2018-10-07T13:48:53.848Z,13.50
2018-10-07T13:51:22.392Z,13.40
2018-10-07T13:53:50.901Z,13.40
2018-10-07T13:56:19.724Z,13.30
2018-10-07T13:58:48.233Z,13.30
2018-10-07T14:01:16.721Z,13.30
2018-10-07T14:03:45.259Z,13.30
2018-10-07T14:06:13.749Z,13.30
2018-10-07T14:08:42.266Z,13.30
2018-10-07T14:11:10.780Z,13.30
2018-10-07T14:13:39.312Z,13.30
2018-10-07T14:16:08.892Z,13.30
2018-10-07T14:18:37.475Z,13.30
2018-10-07T14:21:06.021Z,13.30
2018-10-07T14:23:34.543Z,13.20
2018-10-07T14:26:03.099Z,13.10
2018-10-07T14:28:31.596Z,13.00
2018-10-07T14:31:00.112Z,13.00
2018-10-07T14:33:28.627Z,13.00
2018-10-07T14:35:57.508Z,13.00
2018-10-07T14:38:26.024Z,13.00
2018-10-07T14:40:54.823Z,13.00
2018-10-07T14:43:23.335Z,12.80
2018-10-07T14:45:51.821Z,12.80
2018-10-07T14:48:20.349Z,12.70
2018-10-07T14:50:48.854Z,12.70
2018-10-07T14:53:17.370Z,12.70
2018-10-07T14:55:45.852Z,12.50
2018-10-07T14:58:14.400Z,12.60
2018-10-07T15:00:42.932Z,12.50
2018-10-07T15:03:11.458Z,12.40
2018-10-07T15:05:39.981Z,12.40
2018-10-07T15:08:08.478Z,12.40
2018-10-07T15:10:36.995Z,12.40
2018-10-07T15:13:05.623Z,12.50
2018-10-07T15:15:34.137Z,12.40
2018-10-07T15:18:02.644Z,12.50
2018-10-07T15:20:31.154Z,12.40
2018-10-07T15:22:59.932Z,12.40
2018-10-07T15:25:28.720Z,12.40
2018-10-07T15:27:57.211Z,12.40
2018-10-07T15:30:33.364Z,12.20
2018-10-07T15:33:01.859Z,12.20
2018-10-07T15:35:30.441Z,12.20
2018-10-07T15:37:58.920Z,12.10
2018-10-07T15:40:27.533Z,12.10
2018-10-07T15:42:56.093Z,12.10
2018-10-07T15:45:24.628Z,12.00
2018-10-07T15:47:53.408Z,12.00
2018-10-07T15:50:21.932Z,12.00
2018-10-07T15:52:50.424Z,11.90
2018-10-07T15:58:09.570Z,11.90
2018-10-07T16:00:38.326Z,11.80
2018-10-07T16:03:07.116Z,11.80
2018-10-07T16:05:35.685Z,11.80
2018-10-07T16:08:04.302Z,11.90
2018-10-07T16:10:32.887Z,11.80
2018-10-07T16:13:01.512Z,11.90
2018-10-07T16:15:30.077Z,11.90
2018-10-07T16:17:58.806Z,11.90
2018-10-07T16:20:27.388Z,12.00
2018-10-07T16:22:56.309Z,11.90
2018-10-07T16:25:25.157Z,12.00
2018-10-07T16:27:53.722Z,12.00
2018-10-07T16:30:22.274Z,11.90
2018-10-07T16:32:50.917Z,11.90
2018-10-07T16:35:19.482Z,11.80
2018-10-07T16:37:48.085Z,11.80
2018-10-07T16:40:16.639Z,11.80
2018-10-07T16:42:45.241Z,11.80
2018-10-07T16:45:13.871Z,11.80
2018-10-07T16:47:42.440Z,11.90
2018-10-07T16:50:11.038Z,11.90
2018-10-07T16:52:39.655Z,11.90
2018-10-07T16:55:08.278Z,11.90
2018-10-07T16:57:36.886Z,11.90
2018-10-07T17:00:05.835Z,11.90
2018-10-07T17:02:34.405Z,11.80
2018-10-07T17:05:03.392Z,11.80
2018-10-07T17:07:31.992Z,11.80
2018-10-07T17:10:00.573Z,11.80
2018-10-07T17:12:29.149Z,11.80
2018-10-07T17:14:57.796Z,11.80
2018-10-07T17:17:26.354Z,11.80
2018-10-07T17:19:54.914Z,11.80
2018-10-07T17:22:23.472Z,11.80
2018-10-07T17:24:52.042Z,11.80
2018-10-07T17:27:20.588Z,11.80
2018-10-07T17:29:49.182Z,11.80
2018-10-07T17:32:17.748Z,11.80
2018-10-07T17:34:46.318Z,11.80
2018-10-07T17:37:14.878Z,11.80
2018-10-07T17:39:43.493Z,11.70
2018-10-07T17:42:12.055Z,11.70
2018-10-07T17:44:40.574Z,11.70
2018-10-07T17:47:09.067Z,11.60
2018-10-07T17:49:37.555Z,11.50
2018-10-07T17:52:06.177Z,11.50
2018-10-07T17:54:34.960Z,11.50
2018-10-07T17:57:03.487Z,11.50
2018-10-07T17:59:32.232Z,11.50
2018-10-07T18:02:00.738Z,11.50
2018-10-07T18:04:29.247Z,11.60
2018-10-07T18:06:57.788Z,11.50
2018-10-07T18:09:26.283Z,11.50
2018-10-07T18:11:55.114Z,11.50
2018-10-07T18:14:23.973Z,11.50
2018-10-07T18:16:52.452Z,11.60
2018-10-07T18:19:21.803Z,11.50
2018-10-07T18:21:51.037Z,11.40
2018-10-07T18:24:19.555Z,11.40
2018-10-07T18:26:48.078Z,11.40
2018-10-07T18:29:16.649Z,11.40
2018-10-07T18:31:45.145Z,11.30
2018-10-07T18:34:13.729Z,11.30
2018-10-07T18:36:42.162Z,11.30
2018-10-07T18:39:10.698Z,11.30
2018-10-07T18:41:39.896Z,11.40
2018-10-07T18:44:08.701Z,11.40
2018-10-07T18:46:37.346Z,11.40
2018-10-07T18:49:06.489Z,11.30
2018-10-07T18:51:35.276Z,11.30
2018-10-07T18:54:04.024Z,11.30
2018-10-07T18:56:32.584Z,11.30
2018-10-07T18:59:01.092Z,11.20
2018-10-07T19:01:29.621Z,11.20
2018-10-07T19:03:58.123Z,11.10
2018-10-07T19:06:26.937Z,11.10
2018-10-07T19:08:55.456Z,11.10
2018-10-07T19:11:24.420Z,11.10
2018-10-07T19:13:52.927Z,11.10
2018-10-07T19:16:21.856Z,11.10
2018-10-07T19:18:50.407Z,11.10
2018-10-07T19:21:18.939Z,11.10
2018-10-07T19:23:47.474Z,11.10
2018-10-07T19:26:16.012Z,11.00
2018-10-07T19:28:44.515Z,11.10
2018-10-07T19:31:13.025Z,11.10
2018-10-07T19:33:41.580Z,11.10
2018-10-07T19:36:10.097Z,11.10
2018-10-07T19:38:38.896Z,11.20
2018-10-07T19:41:07.532Z,11.20
2018-10-07T19:43:36.367Z,11.20
2018-10-07T19:46:04.870Z,11.20
2018-10-07T19:48:33.396Z,11.20
2018-10-07T19:51:01.933Z,11.10
2018-10-07T19:53:30.422Z,11.10
2018-10-07T19:55:59.113Z,11.10
2018-10-07T19:58:27.641Z,11.10
2018-10-07T20:00:56.375Z,11.00
2018-10-07T20:03:24.940Z,11.00
2018-10-07T20:05:53.469Z,10.90
2018-10-07T20:08:21.988Z,10.90
2018-10-07T20:10:50.604Z,10.80
2018-10-07T20:13:19.173Z,10.80
2018-10-07T20:15:47.668Z,10.70
2018-10-07T20:18:16.240Z,10.60
2018-10-07T20:20:44.728Z,10.50
2018-10-07T20:23:13.255Z,10.40
2018-10-07T20:25:41.823Z,10.30
2018-10-07T20:28:10.364Z,10.30
2018-10-07T20:30:39.119Z,10.20
2018-10-07T20:33:07.979Z,10.20
2018-10-07T20:35:36.476Z,10.10
2018-10-07T20:38:05.082Z,10.00
2018-10-07T20:40:33.746Z,10.00
2018-10-07T20:43:02.194Z,10.00
2018-10-07T20:48:21.943Z,9.90
2018-10-07T20:50:50.491Z,9.80
2018-10-07T20:53:19.004Z,9.80
2018-10-07T20:55:47.540Z,9.70
2018-10-07T20:58:16.088Z,9.60
2018-10-07T21:00:44.568Z,9.50
2018-10-07T21:03:13.396Z,9.40
2018-10-07T21:05:42.459Z,9.40
2018-10-07T21:08:10.975Z,9.30
2018-10-07T21:10:39.473Z,9.30
2018-10-07T21:13:08.008Z,9.30
2018-10-07T21:15:36.496Z,9.20
2018-10-07T21:18:05.081Z,9.20
2018-10-07T21:20:33.638Z,9.10
2018-10-07T21:23:02.232Z,9.00
2018-10-07T21:25:30.744Z,8.90
2018-10-07T21:27:59.264Z,8.90
2018-10-07T21:30:27.826Z,8.80
2018-10-07T21:32:56.353Z,8.70
2018-10-07T21:35:24.839Z,8.70
2018-10-07T21:37:53.347Z,8.70
2018-10-07T21:40:21.852Z,8.60
2018-10-07T21:42:50.363Z,8.60
2018-10-07T21:45:18.884Z,8.50
2018-10-07T21:47:47.671Z,8.50
2018-10-07T21:50:16.180Z,8.40
2018-10-07T21:52:44.740Z,8.40
2018-10-07T21:55:13.333Z,8.40
2018-10-07T21:57:41.843Z,8.30
2018-10-07T22:00:10.424Z,8.30
2018-10-07T22:02:38.923Z,8.20
2018-10-07T22:05:07.500Z,8.20
2018-10-07T22:07:36.295Z,8.20
2018-10-07T22:10:05.009Z,8.30
2018-10-07T22:12:33.480Z,8.20
2018-10-07T22:15:01.991Z,8.10
2018-10-07T22:17:30.515Z,7.90
2018-10-07T22:19:59.046Z,7.80
2018-10-07T22:22:27.536Z,7.70
2018-10-07T22:24:56.059Z,7.70
2018-10-07T22:27:24.576Z,7.70
2018-10-07T22:29:53.127Z,7.80
2018-10-07T22:32:21.636Z,7.80
2018-10-07T22:34:50.399Z,7.70
2018-10-07T22:37:19.126Z,7.60
2018-10-07T22:39:47.624Z,7.70
2018-10-07T22:42:16.321Z,7.60
2018-10-07T22:44:44.864Z,7.60
2018-10-07T22:47:13.380Z,7.60
2018-10-07T22:49:41.931Z,7.60
2018-10-07T22:52:10.437Z,7.50
2018-10-07T22:54:38.952Z,7.40
2018-10-07T22:57:07.437Z,7.40
2018-10-07T22:59:35.944Z,7.40
2018-10-07T23:02:04.505Z,7.40
2018-10-07T23:04:33.010Z,7.40
2018-10-07T23:07:01.501Z,7.40
2018-10-07T23:09:30.055Z,7.30
2018-10-07T23:11:58.556Z,7.20
2018-10-07T23:14:27.104Z,7.30
2018-10-07T23:16:56.240Z,7.20
2018-10-07T23:19:24.720Z,7.20
2018-10-07T23:21:53.211Z,7.10
2018-10-07T23:24:21.747Z,7.10
2018-10-07T23:26:50.267Z,7.00
2018-10-07T23:29:18.779Z,6.90
2018-10-07T23:31:47.284Z,6.90
2018-10-07T23:34:15.768Z,7.00
2018-10-07T23:36:44.285Z,7.00
2018-10-07T23:39:12.778Z,7.00
2018-10-07T23:41:41.308Z,7.10
2018-10-07T23:44:10.355Z,7.10
2018-10-07T23:46:38.880Z,7.00
2018-10-07T23:49:07.373Z,7.00
2018-10-07T23:51:36.314Z,6.90
2018-10-07T23:54:04.714Z,6.90
2018-10-07T23:56:33.251Z,6.90
2018-10-07T23:59:01.745Z,6.80
